createdAt,value
2022-08-07T00:00:47.705Z,93.98
2022-08-07T00:02:36.971Z,94.07
2022-08-07T00:02:56.401Z,94.19
2022-08-07T00:04:00.734Z,94.30
2022-08-07T00:05:05.760Z,94.40
2022-08-07T00:06:09.482Z,94.36
2022-08-07T00:07:13.810Z,94.23
2022-08-07T00:08:18.174Z,94.37
2022-08-07T00:09:29.211Z,94.47
2022-08-07T00:10:29.770Z,94.59
2022-08-07T00:11:33.266Z,94.72
2022-08-07T00:12:35.710Z,94.71
2022-08-07T00:13:44.675Z,94.57
2022-08-07T00:14:44.411Z,94.52
2022-08-07T00:15:51.222Z,94.55
2022-08-07T00:16:53.187Z,94.57
2022-08-07T00:17:57.520Z,94.52
2022-08-07T00:19:01.864Z,94.49
2022-08-07T00:20:06.251Z,94.60
2022-08-07T00:21:56.106Z,94.64
2022-08-07T00:22:14.907Z,94.62
2022-08-07T00:23:21.225Z,94.88
2022-08-07T00:24:23.601Z,95.06
2022-08-07T00:25:28.075Z,95.20
2022-08-07T00:26:58.609Z,95.18
2022-08-07T00:27:53.253Z,95.03
2022-08-07T00:28:45.943Z,95.00
2022-08-07T00:29:45.540Z,95.00
2022-08-07T00:30:49.772Z,94.99
2022-08-07T00:31:54.216Z,95.02
2022-08-07T00:32:58.639Z,95.06
2022-08-07T00:34:02.862Z,95.24
2022-08-07T00:35:07.188Z,95.27
2022-08-07T00:36:11.546Z,95.33
2022-08-07T00:37:15.892Z,95.32
2022-08-07T00:38:31.036Z,95.28
2022-08-07T00:39:24.640Z,95.27
2022-08-07T00:40:39.859Z,95.38
2022-08-07T00:41:33.333Z,95.27
2022-08-07T00:42:37.681Z,95.22
2022-08-07T00:44:01.017Z,95.22
2022-08-07T00:44:46.398Z,95.12
2022-08-07T00:45:50.740Z,95.02
2022-08-07T00:46:55.055Z,95.03
2022-08-07T00:48:10.221Z,95.11
2022-08-07T00:49:03.838Z,95.28
2022-08-07T00:50:21.413Z,95.44
2022-08-07T00:51:12.452Z,95.45
2022-08-07T00:52:17.628Z,95.47
2022-08-07T00:53:21.168Z,95.51
2022-08-07T00:54:25.480Z,95.53
2022-08-07T00:56:00.438Z,95.68
2022-08-07T00:56:34.168Z,95.87
2022-08-07T00:57:38.489Z,95.82
2022-08-07T00:58:43.769Z,95.72
2022-08-07T00:59:47.150Z,95.63
2022-08-07T01:00:54.001Z,95.58
2022-08-07T01:01:57.815Z,95.54
2022-08-07T01:03:00.309Z,95.58
2022-08-07T01:04:04.690Z,95.45
2022-08-07T01:05:18.692Z,95.32
2022-08-07T01:06:13.370Z,95.51
2022-08-07T01:07:17.807Z,95.52
2022-08-07T01:08:22.080Z,95.67
2022-08-07T01:09:51.112Z,95.95
2022-08-07T01:10:30.762Z,96.24
2022-08-07T01:12:09.489Z,96.36
2022-08-07T01:12:53.747Z,96.14
2022-08-07T01:13:56.697Z,96.20
2022-08-07T01:15:04.043Z,96.29
2022-08-07T01:16:06.121Z,96.34
2022-08-07T01:17:09.754Z,96.39
2022-08-07T01:18:16.871Z,96.34
2022-08-07T01:19:19.717Z,96.30
2022-08-07T01:20:22.848Z,96.28
2022-08-07T01:21:27.560Z,96.32
2022-08-07T01:22:31.571Z,96.42
2022-08-07T01:23:38.787Z,96.49
2022-08-07T01:24:40.269Z,96.58
2022-08-07T01:25:56.176Z,96.55
2022-08-07T01:26:52.180Z,96.27
2022-08-07T01:27:53.237Z,96.12
2022-08-07T01:28:57.576Z,96.16
2022-08-07T01:30:01.909Z,96.38
2022-08-07T01:31:06.247Z,96.54
2022-08-07T01:32:12.349Z,96.76
2022-08-07T01:33:14.930Z,96.88
2022-08-07T01:34:19.550Z,96.95
2022-08-07T01:35:24.481Z,96.96
2022-08-07T01:36:33.299Z,96.97
2022-08-07T01:37:35.179Z,96.98
2022-08-07T01:38:38.546Z,97.03
2022-08-07T01:39:46.870Z,97.16
2022-08-07T01:40:47.143Z,97.33
2022-08-07T01:42:06.158Z,97.45
2022-08-07T01:42:57.293Z,97.51
2022-08-07T01:43:59.995Z,97.16
2022-08-07T01:45:04.232Z,96.75
2022-08-07T01:46:12.248Z,96.57
2022-08-07T01:48:16.386Z,96.73
2022-08-07T01:48:29.896Z,96.97
2022-08-07T01:49:22.220Z,97.19
2022-08-07T01:50:29.250Z,97.43
2022-08-07T01:52:01.273Z,97.69
2022-08-07T01:52:34.382Z,97.81
2022-08-07T01:54:11.839Z,97.89
2022-08-07T01:54:43.104Z,97.96
2022-08-07T01:55:47.460Z,97.91
2022-08-07T01:56:51.746Z,97.94
2022-08-07T01:58:01.284Z,97.83
2022-08-07T01:59:00.334Z,97.80
2022-08-07T02:00:13.378Z,97.87
2022-08-07T02:01:25.318Z,98.02
2022-08-07T02:02:13.325Z,98.20
2022-08-07T02:03:21.687Z,98.16
2022-08-07T02:04:22.002Z,98.17
2022-08-07T02:05:48.072Z,98.16
2022-08-07T02:06:30.799Z,98.23
2022-08-07T02:07:35.789Z,98.11
2022-08-07T02:08:39.231Z,97.90
2022-08-07T02:09:53.130Z,97.69
2022-08-07T02:10:48.668Z,97.60
2022-08-07T02:12:02.754Z,97.44
2022-08-07T02:12:56.534Z,97.50
2022-08-07T02:14:02.627Z,97.69
2022-08-07T02:15:06.060Z,97.89
2022-08-07T02:16:11.874Z,97.96
2022-08-07T02:17:16.662Z,98.01
2022-08-07T02:18:18.022Z,98.19
2022-08-07T02:20:05.628Z,98.37
2022-08-07T02:20:26.687Z,98.42
2022-08-07T02:21:55.034Z,98.27
2022-08-07T02:22:36.654Z,98.26
2022-08-07T02:23:39.575Z,98.34
2022-08-07T02:24:44.523Z,98.39
2022-08-07T02:26:31.576Z,98.41
2022-08-07T02:26:52.533Z,98.58
2022-08-07T02:27:56.805Z,98.72
2022-08-07T02:29:01.166Z,98.55
2022-08-07T02:30:07.295Z,98.32
2022-08-07T02:31:19.106Z,98.06
2022-08-07T02:32:14.029Z,97.75
2022-08-07T02:33:18.394Z,97.69
2022-08-07T02:34:22.601Z,97.53
2022-08-07T02:36:30.568Z,97.46
2022-08-07T02:36:32.780Z,97.38
2022-08-07T02:37:36.075Z,97.44
2022-08-07T02:38:39.964Z,97.59
2022-08-07T02:40:02.382Z,97.82
2022-08-07T02:40:51.536Z,98.08
2022-08-07T02:41:54.978Z,98.38
2022-08-07T02:42:57.169Z,98.67
2022-08-07T02:44:01.440Z,98.90
2022-08-07T02:45:20.650Z,99.05
2022-08-07T02:46:10.054Z,99.07
2022-08-07T02:47:19.573Z,99.00
2022-08-07T02:48:18.602Z,98.90
2022-08-07T02:49:55.786Z,98.85
2022-08-07T02:50:27.131Z,98.84
2022-08-07T02:51:42.685Z,98.94
2022-08-07T02:52:35.695Z,99.03
2022-08-07T02:53:40.080Z,98.93
2022-08-07T02:54:44.331Z,98.82
2022-08-07T02:56:03.891Z,98.94
2022-08-07T02:56:52.873Z,99.10
2022-08-07T02:57:57.196Z,98.83
2022-08-07T02:59:01.536Z,98.64
2022-08-07T03:00:10.419Z,98.66
2022-08-07T03:01:16.083Z,98.68
2022-08-07T03:02:14.361Z,98.81
2022-08-07T03:03:22.638Z,99.01
2022-08-07T03:04:25.944Z,99.14
2022-08-07T03:05:35.947Z,99.21
2022-08-07T03:06:34.696Z,99.17
2022-08-07T03:08:05.030Z,99.13
2022-08-07T03:08:42.229Z,99.02
2022-08-07T03:09:50.633Z,98.97
2022-08-07T03:10:50.922Z,99.04
2022-08-07T03:11:57.931Z,99.11
2022-08-07T03:12:59.509Z,99.20
2022-08-07T03:14:03.812Z,99.26
2022-08-07T03:15:08.249Z,99.27
2022-08-07T03:16:12.488Z,99.24
2022-08-07T03:17:16.681Z,99.07
2022-08-07T03:18:20.952Z,98.88
2022-08-07T03:19:29.069Z,98.78
2022-08-07T03:20:29.547Z,98.73
2022-08-07T03:21:33.943Z,98.71
2022-08-07T03:22:38.180Z,98.62
2022-08-07T03:24:18.317Z,98.51
2022-08-07T03:24:46.840Z,98.31
2022-08-07T03:25:58.317Z,98.23
2022-08-07T03:26:58.950Z,98.18
2022-08-07T03:28:09.440Z,98.14
2022-08-07T03:29:03.957Z,98.25
2022-08-07T03:30:08.316Z,98.35
2022-08-07T03:31:12.577Z,98.31
2022-08-07T03:32:16.951Z,98.20
2022-08-07T03:33:21.184Z,98.16
2022-08-07T03:34:27.363Z,97.94
2022-08-07T03:35:43.960Z,97.84
2022-08-07T03:36:34.059Z,97.75
2022-08-07T03:37:46.343Z,97.76
2022-08-07T03:38:42.627Z,97.83
2022-08-07T03:40:07.322Z,97.91
2022-08-07T03:40:53.962Z,97.88
2022-08-07T03:41:55.485Z,97.83
2022-08-07T03:42:59.879Z,97.85
2022-08-07T03:44:04.178Z,97.79
2022-08-07T03:45:08.541Z,97.72
2022-08-07T03:46:18.170Z,97.72
2022-08-07T03:47:17.200Z,97.69
2022-08-07T03:48:21.499Z,97.73
2022-08-07T03:49:25.850Z,97.83
2022-08-07T03:50:30.067Z,97.92
2022-08-07T03:51:46.987Z,98.03
2022-08-07T03:52:38.676Z,98.08
2022-08-07T03:54:32.739Z,98.13
2022-08-07T03:54:54.245Z,98.24
2022-08-07T03:56:04.154Z,98.40
2022-08-07T03:57:07.046Z,98.55
2022-08-07T03:58:32.941Z,98.72
2022-08-07T03:59:08.746Z,98.89
2022-08-07T04:00:10.837Z,98.91
2022-08-07T04:01:15.226Z,98.89
2022-08-07T04:02:19.480Z,98.90
2022-08-07T04:03:23.752Z,99.03
2022-08-07T04:04:28.094Z,99.14
2022-08-07T04:05:40.231Z,99.07
2022-08-07T04:06:38.381Z,98.95
2022-08-07T04:07:45.179Z,98.98
2022-08-07T04:08:45.356Z,99.17
2022-08-07T04:09:50.493Z,99.31
2022-08-07T04:12:23.336Z,99.07
2022-08-07T04:12:25.662Z,98.73
2022-08-07T04:13:02.530Z,98.56
2022-08-07T04:14:10.971Z,98.56
2022-08-07T04:15:11.083Z,98.62
2022-08-07T04:16:15.469Z,98.64
2022-08-07T04:17:21.184Z,98.76
2022-08-07T04:18:57.866Z,98.96
2022-08-07T04:19:34.040Z,99.16
2022-08-07T04:20:35.206Z,99.30
2022-08-07T04:21:36.978Z,99.41
2022-08-07T04:22:41.215Z,99.48
2022-08-07T04:24:06.966Z,99.59
2022-08-07T04:24:49.890Z,99.73
2022-08-07T04:25:54.148Z,99.79
2022-08-07T04:26:58.476Z,99.75
2022-08-07T04:28:02.814Z,99.93
2022-08-07T04:29:07.014Z,100.00
2022-08-07T04:30:21.356Z,100.00
2022-08-07T04:31:20.085Z,100.00
2022-08-07T04:32:33.957Z,100.00
2022-08-07T04:33:24.207Z,100.00
2022-08-07T04:34:33.361Z,100.00
2022-08-07T04:35:35.335Z,100.00
2022-08-07T04:36:37.031Z,100.00
2022-08-07T04:38:02.893Z,100.00
2022-08-07T04:38:45.671Z,100.00
2022-08-07T04:39:50.087Z,100.00
2022-08-07T04:40:56.767Z,100.00
2022-08-07T04:41:58.671Z,100.00
2022-08-07T04:43:03.667Z,100.00
2022-08-07T04:44:14.486Z,100.00
2022-08-07T04:45:11.651Z,100.00
2022-08-07T04:46:25.770Z,100.00
2022-08-07T04:47:57.339Z,100.00
2022-08-07T04:48:24.498Z,100.00
2022-08-07T04:49:28.829Z,100.00
2022-08-07T04:50:33.117Z,100.00
2022-08-07T04:51:37.469Z,100.00
2022-08-07T04:52:51.214Z,100.00
2022-08-07T04:54:01.552Z,100.00
2022-08-07T04:54:50.897Z,100.00
2022-08-07T04:58:11.093Z,100.00
2022-08-07T04:58:12.382Z,100.00
2022-08-07T04:58:24.301Z,100.00
2022-08-07T04:59:18.532Z,100.00
2022-08-07T05:00:17.206Z,100.00
2022-08-07T05:01:18.014Z,100.00
2022-08-07T05:02:20.858Z,100.00
2022-08-07T05:04:01.145Z,100.00
2022-08-07T05:04:29.336Z,100.00
2022-08-07T05:05:53.103Z,100.00
2022-08-07T05:06:43.247Z,100.00
2022-08-07T05:07:48.200Z,100.00
2022-08-07T05:09:01.168Z,100.00
2022-08-07T05:09:50.831Z,100.00
2022-08-07T05:10:58.428Z,100.00
2022-08-07T05:12:02.490Z,100.00
2022-08-07T05:14:44.440Z,100.00
2022-08-07T05:14:55.368Z,100.00
2022-08-07T05:15:12.347Z,100.00
2022-08-07T05:16:16.691Z,100.00
2022-08-07T05:17:51.929Z,100.00
2022-08-07T05:18:25.235Z,100.00
2022-08-07T05:19:44.077Z,100.00
2022-08-07T05:20:33.899Z,100.00
2022-08-07T05:21:59.999Z,100.00
2022-08-07T05:22:42.511Z,100.00
2022-08-07T05:23:46.928Z,100.00
2022-08-07T05:24:51.246Z,100.00
2022-08-07T05:26:13.607Z,100.00
2022-08-07T05:26:59.836Z,100.00
2022-08-07T05:28:21.362Z,100.00
2022-08-07T05:29:08.530Z,100.00
2022-08-07T05:30:12.714Z,100.00
2022-08-07T05:31:17.016Z,100.00
2022-08-07T05:32:21.402Z,100.00
2022-08-07T05:33:25.963Z,100.00
2022-08-07T05:34:33.000Z,100.00
2022-08-07T05:35:42.121Z,100.00
2022-08-07T05:36:40.879Z,100.00
2022-08-07T05:37:45.056Z,100.00
2022-08-07T05:38:59.383Z,100.00
2022-08-07T05:40:16.623Z,100.00
2022-08-07T05:40:58.085Z,100.00
2022-08-07T05:42:06.350Z,100.00
2022-08-07T05:43:06.693Z,100.00
2022-08-07T05:44:12.490Z,100.00
2022-08-07T05:45:26.088Z,100.00
2022-08-07T05:46:19.723Z,100.00
2022-08-07T05:47:59.986Z,100.00
2022-08-07T05:48:28.381Z,100.00
2022-08-07T05:49:40.551Z,100.00
2022-08-07T05:50:39.398Z,100.00
2022-08-07T05:51:42.303Z,100.00
2022-08-07T05:52:45.667Z,100.00
2022-08-07T05:54:11.955Z,100.00
2022-08-07T05:54:55.750Z,100.00
2022-08-07T05:56:02.023Z,100.00
2022-08-07T05:57:03.471Z,100.00
2022-08-07T05:58:07.479Z,100.00
2022-08-07T05:59:11.804Z,100.00
2022-08-07T06:00:17.726Z,100.00
2022-08-07T06:01:20.549Z,100.00
2022-08-07T06:02:29.221Z,100.00
2022-08-07T06:03:53.392Z,100.00
2022-08-07T06:04:33.610Z,100.00
2022-08-07T06:05:37.927Z,100.00
2022-08-07T06:06:46.105Z,100.00
2022-08-07T06:08:13.438Z,100.00
2022-08-07T06:08:51.541Z,100.00
2022-08-07T06:10:05.792Z,100.00
2022-08-07T06:10:59.720Z,100.00
2022-08-07T06:12:04.001Z,100.00
2022-08-07T06:13:13.450Z,99.87
2022-08-07T06:14:21.293Z,99.63
2022-08-07T06:15:19.734Z,99.43
2022-08-07T06:16:21.591Z,99.22
2022-08-07T06:17:32.095Z,99.00
2022-08-07T06:18:30.185Z,98.85
2022-08-07T06:19:47.796Z,98.73
2022-08-07T06:20:50.955Z,98.59
2022-08-07T06:22:14.629Z,98.46
2022-08-07T06:22:50.594Z,98.36
2022-08-07T06:24:37.886Z,98.38
2022-08-07T06:24:57.976Z,98.34
2022-08-07T06:26:00.655Z,98.27
2022-08-07T06:27:04.999Z,98.23
2022-08-07T06:28:09.374Z,98.11
2022-08-07T06:29:13.833Z,97.92
2022-08-07T06:30:32.311Z,97.72
2022-08-07T06:31:24.180Z,97.52
2022-08-07T06:32:29.449Z,97.31
2022-08-07T06:33:33.064Z,97.14
2022-08-07T06:34:35.560Z,97.07
2022-08-07T06:35:47.787Z,96.96
2022-08-07T06:36:44.295Z,96.59
2022-08-07T06:37:48.573Z,96.16
2022-08-07T06:40:12.448Z,95.91
2022-08-07T06:40:16.904Z,95.63
2022-08-07T06:41:01.846Z,95.44
2022-08-07T06:42:06.189Z,94.20
2022-08-07T06:43:21.195Z,94.28
2022-08-07T06:44:14.896Z,94.22
2022-08-07T06:45:19.266Z,94.58
2022-08-07T06:46:35.054Z,94.71
2022-08-07T06:47:28.237Z,94.35
2022-08-07T06:48:32.390Z,94.36
2022-08-07T06:49:50.906Z,94.32
2022-08-07T06:50:43.283Z,94.31
2022-08-07T06:51:50.007Z,94.55
2022-08-07T06:52:52.984Z,94.70
2022-08-07T06:55:30.027Z,94.69
2022-08-07T06:55:32.466Z,95.00
2022-08-07T06:56:03.025Z,95.47
2022-08-07T06:57:07.491Z,95.50
2022-08-07T06:58:11.878Z,95.34
2022-08-07T07:00:13.923Z,95.17
2022-08-07T07:00:20.626Z,94.87
2022-08-07T07:01:25.126Z,94.57
2022-08-07T07:02:53.539Z,92.93
2022-08-07T07:03:39.895Z,92.67
2022-08-07T07:04:38.323Z,92.04
2022-08-07T07:06:03.808Z,92.67
2022-08-07T07:07:00.446Z,91.97
2022-08-07T07:07:58.513Z,91.50
2022-08-07T07:08:56.769Z,90.84
2022-08-07T07:10:00.296Z,90.59
2022-08-07T07:11:14.000Z,90.56
2022-08-07T07:12:19.666Z,90.59
2022-08-07T07:13:13.534Z,88.80
2022-08-07T07:14:17.979Z,89.02
2022-08-07T07:15:24.182Z,89.33
2022-08-07T07:16:27.618Z,88.95
2022-08-07T07:17:31.374Z,87.17
2022-08-07T07:18:46.953Z,87.26
2022-08-07T07:19:57.775Z,87.73
2022-08-07T07:20:44.629Z,87.54
2022-08-07T07:22:12.268Z,87.72
2022-08-07T07:24:08.376Z,87.26
2022-08-07T07:24:09.624Z,87.49
2022-08-07T07:25:14.247Z,87.78
2022-08-07T07:26:35.471Z,87.59
2022-08-07T07:27:11.046Z,87.82
2022-08-07T07:28:42.685Z,87.35
2022-08-07T07:29:40.024Z,86.86
2022-08-07T07:30:32.569Z,85.94
2022-08-07T07:31:30.344Z,86.02
2022-08-07T07:32:33.147Z,86.45
2022-08-07T07:33:37.539Z,86.51
2022-08-07T07:34:41.946Z,86.79
2022-08-07T07:36:04.985Z,86.75
2022-08-07T07:36:54.224Z,85.99
2022-08-07T07:38:02.524Z,85.45
2022-08-07T07:39:01.771Z,86.05
2022-08-07T07:40:14.623Z,86.13
2022-08-07T07:41:10.458Z,86.27
2022-08-07T07:42:19.702Z,86.94
2022-08-07T07:43:27.649Z,87.14
2022-08-07T07:44:26.502Z,87.49
2022-08-07T07:46:37.035Z,87.71
2022-08-07T07:46:53.630Z,87.61
2022-08-07T07:47:51.956Z,87.45
2022-08-07T07:48:41.509Z,87.39
2022-08-07T07:50:36.311Z,86.77
2022-08-07T07:50:50.432Z,87.00
2022-08-07T07:51:58.485Z,87.08
2022-08-07T07:52:59.311Z,86.85
2022-08-07T07:54:03.757Z,86.32
2022-08-07T07:55:08.276Z,86.35
2022-08-07T07:56:12.668Z,86.10
2022-08-07T07:57:17.093Z,86.16
2022-08-07T07:58:21.488Z,85.59
2022-08-07T07:59:52.422Z,85.66
2022-08-07T08:00:34.205Z,85.88
2022-08-07T08:02:03.992Z,85.75
2022-08-07T08:02:39.340Z,85.06
2022-08-07T08:04:10.961Z,84.94
2022-08-07T08:04:50.595Z,84.51
2022-08-07T08:05:54.732Z,85.04
2022-08-07T08:06:57.003Z,85.39
2022-08-07T08:08:01.962Z,85.78
2022-08-07T08:09:05.935Z,85.80
2022-08-07T08:10:10.368Z,85.48
2022-08-07T08:11:17.821Z,85.45
2022-08-07T08:12:36.756Z,85.08
2022-08-07T08:13:23.678Z,85.07
2022-08-07T08:14:28.127Z,85.24
2022-08-07T08:15:58.181Z,84.97
2022-08-07T08:16:36.998Z,84.63
2022-08-07T08:17:58.016Z,84.48
2022-08-07T08:18:45.838Z,84.75
2022-08-07T08:20:18.222Z,83.90
2022-08-07T08:21:08.705Z,84.12
2022-08-07T08:22:12.044Z,84.35
2022-08-07T08:23:16.482Z,84.23
2022-08-07T08:24:36.446Z,84.53
2022-08-07T08:25:41.823Z,83.96
2022-08-07T08:26:29.647Z,83.72
2022-08-07T08:27:34.215Z,82.92
2022-08-07T08:28:39.247Z,82.86
2022-08-07T08:29:54.192Z,82.92
2022-08-07T08:30:50.881Z,81.48
2022-08-07T08:31:58.880Z,82.49
2022-08-07T08:32:56.313Z,81.91
2022-08-07T08:34:00.711Z,80.83
2022-08-07T08:35:05.133Z,81.27
2022-08-07T08:36:09.532Z,80.71
2022-08-07T08:37:40.403Z,81.63
2022-08-07T08:38:18.381Z,81.89
2022-08-07T08:39:22.865Z,82.19
2022-08-07T08:40:28.534Z,82.95
2022-08-07T08:41:58.455Z,83.16
2022-08-07T08:42:36.111Z,82.88
2022-08-07T08:43:42.720Z,82.93
2022-08-07T08:44:45.769Z,83.49
2022-08-07T08:45:59.187Z,82.71
2022-08-07T08:46:53.799Z,82.74
2022-08-07T08:47:58.247Z,82.48
2022-08-07T08:49:02.649Z,82.61
2022-08-07T08:50:07.123Z,82.16
2022-08-07T08:51:14.581Z,82.50
2022-08-07T08:52:16.572Z,82.16
2022-08-07T08:53:20.541Z,80.79
2022-08-07T08:54:25.053Z,80.75
2022-08-07T08:55:53.734Z,81.05
2022-08-07T08:56:33.911Z,79.88
2022-08-07T08:57:38.306Z,79.00
2022-08-07T08:58:42.742Z,78.42
2022-08-07T08:59:48.432Z,78.68
2022-08-07T09:00:51.811Z,78.25
2022-08-07T09:01:58.455Z,78.17
2022-08-07T09:03:00.805Z,76.93
2022-08-07T09:04:04.869Z,77.96
2022-08-07T09:05:09.312Z,78.70
2022-08-07T09:06:13.786Z,78.48
2022-08-07T09:07:22.967Z,78.95
2022-08-07T09:08:24.244Z,79.55
2022-08-07T09:09:33.083Z,79.28
2022-08-07T09:10:31.624Z,77.16
2022-08-07T09:11:43.526Z,78.55
2022-08-07T09:12:40.453Z,79.12
2022-08-07T09:13:44.932Z,79.65
2022-08-07T09:14:50.878Z,79.27
2022-08-07T09:16:24.602Z,78.89
2022-08-07T09:16:58.388Z,76.71
2022-08-07T09:18:08.710Z,77.15
2022-08-07T09:19:44.796Z,76.12
2022-08-07T09:20:35.022Z,75.61
2022-08-07T09:21:34.197Z,75.46
2022-08-07T09:24:27.478Z,75.46
2022-08-07T09:24:34.138Z,74.91
2022-08-07T09:24:58.935Z,76.42
2022-08-07T09:25:34.031Z,75.63
2022-08-07T09:26:38.338Z,76.26
2022-08-07T09:27:59.578Z,75.57
2022-08-07T09:30:01.864Z,75.39
2022-08-07T09:30:05.876Z,75.09
2022-08-07T09:30:56.336Z,75.61
2022-08-07T09:32:00.745Z,76.06
2022-08-07T09:33:16.464Z,75.69
2022-08-07T09:34:09.678Z,74.50
2022-08-07T09:36:02.926Z,73.36
2022-08-07T09:36:18.592Z,74.20
2022-08-07T09:37:47.864Z,75.20
2022-08-07T09:38:27.524Z,75.03
2022-08-07T09:39:54.076Z,75.60
2022-08-07T09:40:37.054Z,73.74
2022-08-07T09:41:58.460Z,73.61
2022-08-07T09:42:46.018Z,73.57
2022-08-07T09:44:06.223Z,73.01
2022-08-07T09:47:23.775Z,73.48
2022-08-07T09:47:50.936Z,73.29
2022-08-07T09:47:51.178Z,73.58
2022-08-07T09:48:12.302Z,72.57
2022-08-07T09:50:02.104Z,72.73
2022-08-07T09:50:19.708Z,72.62
2022-08-07T09:52:10.050Z,73.94
2022-08-07T09:52:33.672Z,73.52
2022-08-07T09:53:40.935Z,73.71
2022-08-07T09:54:34.803Z,74.55
2022-08-07T09:56:04.012Z,74.23
2022-08-07T09:56:43.747Z,74.18
2022-08-07T09:57:48.241Z,74.72
2022-08-07T09:58:52.621Z,74.08
2022-08-07T10:00:01.279Z,72.48
2022-08-07T10:01:01.618Z,71.99
2022-08-07T10:02:05.991Z,72.28
2022-08-07T10:04:05.433Z,72.64
2022-08-07T10:04:16.028Z,71.34
2022-08-07T10:05:20.109Z,71.69
2022-08-07T10:06:24.449Z,72.33
2022-08-07T10:07:31.403Z,72.80
2022-08-07T10:08:32.751Z,72.67
2022-08-07T10:09:59.253Z,71.11
2022-08-07T10:11:17.255Z,69.99
2022-08-07T10:12:03.127Z,71.32
2022-08-07T10:12:56.640Z,72.18
2022-08-07T10:14:02.000Z,71.49
2022-08-07T10:15:04.186Z,72.46
2022-08-07T10:16:08.631Z,72.53
2022-08-07T10:17:14.264Z,73.20
2022-08-07T10:18:18.088Z,73.64
2022-08-07T10:19:22.506Z,73.66
2022-08-07T10:20:30.620Z,73.57
2022-08-07T10:22:14.306Z,73.63
2022-08-07T10:22:36.855Z,73.81
2022-08-07T10:24:05.724Z,73.54
2022-08-07T10:24:44.830Z,73.61
2022-08-07T10:25:51.935Z,73.08
2022-08-07T10:26:53.830Z,72.15
2022-08-07T10:27:58.116Z,72.34
2022-08-07T10:29:02.664Z,72.51
2022-08-07T10:30:07.106Z,72.53
2022-08-07T10:31:11.503Z,73.06
2022-08-07T10:32:37.156Z,73.47
2022-08-07T10:33:20.383Z,73.47
2022-08-07T10:34:31.719Z,73.48
2022-08-07T10:35:55.381Z,73.72
2022-08-07T10:36:36.181Z,73.70
2022-08-07T10:38:00.024Z,73.45
2022-08-07T10:38:49.273Z,73.35
2022-08-07T10:40:02.919Z,73.03
2022-08-07T10:40:51.695Z,73.19
2022-08-07T10:42:09.103Z,72.47
2022-08-07T10:43:00.504Z,72.36
2022-08-07T10:44:07.673Z,71.39
2022-08-07T10:45:09.460Z,72.53
2022-08-07T10:46:13.906Z,72.10
2022-08-07T10:47:18.380Z,71.44
2022-08-07T10:48:22.817Z,72.19
2022-08-07T10:49:49.499Z,72.58
2022-08-07T10:50:31.735Z,72.72
2022-08-07T10:51:57.560Z,71.68
2022-08-07T10:52:42.703Z,70.72
2022-08-07T10:53:45.225Z,70.78
2022-08-07T10:55:00.845Z,70.91
2022-08-07T10:55:54.004Z,69.73
2022-08-07T10:56:58.511Z,70.06
2022-08-07T10:58:02.821Z,70.72
2022-08-07T10:59:07.344Z,69.49
2022-08-07T11:00:39.250Z,67.88
2022-08-07T11:01:16.326Z,67.94
2022-08-07T11:02:27.588Z,68.61
2022-08-07T11:03:28.176Z,68.22
2022-08-07T11:04:34.924Z,69.16
2022-08-07T11:05:35.852Z,69.07
2022-08-07T11:06:38.458Z,69.23
2022-08-07T11:07:58.305Z,69.51
2022-08-07T11:08:47.405Z,69.50
2022-08-07T11:10:10.061Z,69.96
2022-08-07T11:10:59.828Z,70.28
2022-08-07T11:12:06.816Z,70.52
2022-08-07T11:13:16.896Z,68.78
2022-08-07T11:14:45.363Z,68.02
2022-08-07T11:16:51.044Z,68.93
2022-08-07T11:17:54.013Z,68.54
2022-08-07T11:18:55.073Z,67.59
2022-08-07T11:19:59.526Z,68.94
2022-08-07T11:21:03.938Z,68.99
2022-08-07T11:22:19.469Z,67.47
2022-08-07T11:23:12.920Z,68.90
2022-08-07T11:24:17.346Z,68.98
2022-08-07T11:25:21.811Z,69.46
2022-08-07T11:26:26.277Z,68.97
2022-08-07T11:28:01.837Z,68.13
2022-08-07T11:28:35.341Z,67.90
2022-08-07T11:29:43.596Z,67.89
2022-08-07T11:30:44.311Z,68.37
2022-08-07T11:31:48.793Z,68.40
2022-08-07T11:32:53.671Z,68.61
2022-08-07T11:34:00.408Z,68.04
2022-08-07T11:35:02.114Z,67.80
2022-08-07T11:36:10.387Z,67.96
2022-08-07T11:37:11.595Z,66.21
2022-08-07T11:38:17.524Z,64.18
2022-08-07T11:39:20.571Z,64.08
2022-08-07T11:40:24.545Z,64.49
2022-08-07T11:42:02.421Z,60.85
2022-08-07T11:42:33.398Z,62.62
2022-08-07T11:43:54.603Z,64.63
2022-08-07T11:44:51.992Z,65.83
2022-08-07T11:45:49.882Z,65.72
2022-08-07T11:46:51.157Z,66.26
2022-08-07T11:47:58.984Z,63.14
2022-08-07T11:49:50.777Z,64.34
2022-08-07T11:50:32.225Z,63.34
2022-08-07T11:51:09.849Z,62.78
2022-08-07T11:52:13.571Z,63.09
2022-08-07T11:53:18.088Z,62.36
2022-08-07T11:54:25.384Z,61.26
2022-08-07T11:56:15.579Z,61.05
2022-08-07T11:56:31.444Z,63.63
2022-08-07T11:57:59.791Z,63.22
2022-08-07T11:58:40.427Z,64.13
2022-08-07T12:00:11.261Z,64.93
2022-08-07T12:01:01.722Z,62.91
2022-08-07T12:01:59.777Z,61.90
2022-08-07T12:02:58.323Z,63.92
2022-08-07T12:04:02.850Z,62.93
2022-08-07T12:05:08.945Z,62.63
2022-08-07T12:06:37.379Z,62.28
2022-08-07T12:07:22.084Z,64.16
2022-08-07T12:08:25.703Z,60.66
2022-08-07T12:09:25.235Z,59.67
2022-08-07T12:10:29.792Z,58.58
2022-08-07T12:11:34.252Z,61.94
2022-08-07T12:12:38.712Z,60.51
2022-08-07T12:13:47.509Z,59.52
2022-08-07T12:14:52.713Z,58.71
2022-08-07T12:16:06.663Z,56.09
2022-08-07T12:16:56.756Z,59.29
2022-08-07T12:18:07.969Z,57.72
2022-08-07T12:19:05.684Z,56.55
2022-08-07T12:20:20.836Z,50.06
2022-08-07T12:21:14.950Z,57.05
2022-08-07T12:22:38.159Z,57.71
2022-08-07T12:24:05.273Z,55.23
2022-08-07T12:24:37.644Z,56.81
2022-08-07T12:26:03.083Z,57.43
2022-08-07T12:26:44.813Z,57.43
2022-08-07T12:28:08.652Z,58.64
2022-08-07T12:28:49.876Z,58.55
2022-08-07T12:29:51.536Z,57.88
2022-08-07T12:31:01.190Z,58.25
2022-08-07T12:32:04.808Z,58.48
2022-08-07T12:33:18.864Z,57.92
2022-08-07T12:34:13.363Z,53.94
2022-08-07T12:35:17.820Z,55.99
2022-08-07T12:36:32.723Z,54.33
2022-08-07T12:37:28.418Z,52.73
2022-08-07T12:38:42.546Z,55.72
2022-08-07T12:39:44.324Z,57.58
2022-08-07T12:40:50.035Z,56.83
2022-08-07T12:41:51.572Z,55.49
2022-08-07T12:42:55.145Z,55.54
2022-08-07T12:44:03.786Z,57.71
2022-08-07T12:44:58.446Z,57.05
2022-08-07T12:46:02.960Z,57.08
2022-08-07T12:47:07.459Z,54.59
2022-08-07T12:48:13.180Z,54.36
2022-08-07T12:49:25.810Z,52.99
2022-08-07T12:50:39.592Z,53.23
2022-08-07T12:51:51.490Z,52.90
2022-08-07T12:52:42.524Z,54.00
2022-08-07T12:54:03.050Z,55.90
2022-08-07T12:54:54.498Z,54.77
2022-08-07T12:56:02.392Z,54.15
2022-08-07T12:57:03.475Z,55.35
2022-08-07T12:58:04.908Z,54.14
2022-08-07T12:59:24.295Z,53.47
2022-08-07T13:00:32.707Z,52.74
2022-08-07T13:01:32.348Z,51.29
2022-08-07T13:02:35.932Z,51.58
2022-08-07T13:03:54.905Z,52.52
2022-08-07T13:04:49.316Z,53.84
2022-08-07T13:06:05.059Z,54.34
2022-08-07T13:07:00.115Z,54.09
2022-08-07T13:08:13.464Z,52.95
2022-08-07T13:09:03.121Z,53.50
2022-08-07T13:10:19.283Z,53.33
2022-08-07T13:11:16.281Z,53.29
2022-08-07T13:12:16.406Z,53.18
2022-08-07T13:13:48.717Z,52.94
2022-08-07T13:14:25.407Z,54.33
2022-08-07T13:15:31.844Z,54.92
2022-08-07T13:16:36.759Z,53.44
2022-08-07T13:17:41.196Z,54.74
2022-08-07T13:18:44.569Z,54.42
2022-08-07T13:19:51.603Z,55.62
2022-08-07T13:20:55.263Z,55.22
2022-08-07T13:22:06.191Z,55.51
2022-08-07T13:23:09.866Z,55.32
2022-08-07T13:24:07.891Z,54.94
2022-08-07T13:25:24.242Z,55.92
2022-08-07T13:26:18.392Z,55.31
2022-08-07T13:27:21.359Z,54.85
2022-08-07T13:28:26.067Z,55.57
2022-08-07T13:29:34.646Z,55.92
2022-08-07T13:30:40.439Z,55.45
2022-08-07T13:31:46.105Z,55.03
2022-08-07T13:32:43.733Z,55.37
2022-08-07T13:34:30.354Z,55.83
2022-08-07T13:34:52.716Z,54.83
2022-08-07T13:36:00.751Z,54.59
2022-08-07T13:37:01.686Z,54.56
2022-08-07T13:38:06.134Z,53.58
2022-08-07T13:39:13.058Z,53.50
2022-08-07T13:40:33.367Z,52.55
2022-08-07T13:41:19.595Z,52.81
2022-08-07T13:42:24.999Z,53.72
2022-08-07T13:43:28.536Z,53.79
2022-08-07T13:44:34.397Z,53.97
2022-08-07T13:46:11.929Z,53.80
2022-08-07T13:46:49.366Z,54.48
2022-08-07T13:48:05.294Z,54.76
2022-08-07T13:48:58.751Z,54.78